Time;durP1;ratioP1;P1;durP2;ratioP2;P2;SDS_P1;SDS_P2;PMS_P1;PMS_P2;Temp;Humidity;BMP_temperature;BMP_pressure;BME280_temperature;BME280_humidity;BME280_pressure;Samples;Min_cycle;Max_cycle;Signal;HPM_P1;HPM_P2
2022/01/02 00:01:41;;;;;;;15.40;8.95;;;5.30;99.90;;;;;;5035047;28;20527;-86
2022/01/02 00:04:07;;;;;;;14.95;8.45;;;5.30;99.90;;;;;;5034733;28;20461;-86
2022/01/02 00:06:40;;;;;;;12.68;7.70;;;5.30;99.90;;;;;;5013456;28;20402;-86
2022/01/02 00:09:07;;;;;;;27.17;12.88;;;5.40;99.90;;;;;;5013745;28;20561;-86
2022/01/02 00:11:33;;;;;;;16.95;8.80;;;5.40;99.90;;;;;;5014901;28;20026;-86
2022/01/02 00:14:06;;;;;;;20.65;10.18;;;5.40;99.90;;;;;;5015004;28;20080;-86
2022/01/02 00:16:37;;;;;;;25.70;12.77;;;5.50;99.90;;;;;;5013671;28;20034;-86
2022/01/02 00:19:16;;;;;;;21.88;11.45;;;5.30;99.90;;;;;;5013615;28;20445;-86
2022/01/02 00:21:45;;;;;;;22.00;11.27;;;4.90;99.90;;;;;;5014682;28;20108;-86
2022/01/02 00:24:16;;;;;;;21.52;11.80;;;4.80;99.90;;;;;;5014742;28;20072;-86
2022/01/02 00:26:44;;;;;;;14.95;8.05;;;4.70;99.90;;;;;;5013559;28;20497;-86
2022/01/02 00:29:11;;;;;;;15.07;7.60;;;5.00;99.90;;;;;;5013324;28;20032;-86
2022/01/02 00:31:39;;;;;;;12.18;6.80;;;5.00;99.90;;;;;;5013271;28;20030;-86
2022/01/02 00:34:07;;;;;;;14.38;8.18;;;4.80;99.90;;;;;;5013350;28;20028;-86
2022/01/02 00:36:34;;;;;;;9.98;6.22;;;4.80;99.90;;;;;;5013150;28;20030;-86
2022/01/02 00:39:00;;;;;;;14.63;7.43;;;4.90;99.90;;;;;;5013169;28;20121;-86
2022/01/02 00:41:33;;;;;;;8.35;5.95;;;5.10;99.90;;;;;;5014355;28;20108;-86
2022/01/02 00:44:14;;;;;;;12.15;6.78;;;5.10;99.90;;;;;;5013123;28;20026;-86
2022/01/02 00:46:52;;;;;;;12.60;6.70;;;5.00;99.90;;;;;;5014331;28;20018;-86
2022/01/02 00:49:24;;;;;;;13.15;6.88;;;5.00;99.90;;;;;;5013071;28;20026;-86
2022/01/02 00:51:58;;;;;;;11.93;6.70;;;4.90;99.90;;;;;;5013015;28;20490;-86
2022/01/02 00:54:28;;;;;;;11.63;6.90;;;5.20;99.90;;;;;;5012936;28;20064;-86
2022/01/02 00:57:01;;;;;;;11.88;6.80;;;5.00;99.90;;;;;;5014167;28;20489;-86
2022/01/02 00:59:28;;;;;;;9.05;5.88;;;4.80;99.90;;;;;;5012905;28;20077;-86
2022/01/02 01:02:04;;;;;;;11.00;6.95;;;4.60;99.90;;;;;;5012695;28;20030;-86
2022/01/02 01:04:36;;;;;;;11.02;6.80;;;4.80;99.90;;;;;;5014059;28;20478;-86
2022/01/02 01:07:04;;;;;;;11.93;6.82;;;5.10;99.90;;;;;;5028232;28;20037;-85
2022/01/02 01:09:31;;;;;;;13.07;6.95;;;5.10;99.90;;;;;;5033631;28;20025;-86
2022/01/02 01:12:02;;;;;;;9.07;6.45;;;5.30;99.90;;;;;;5033557;28;20034;-85
2022/01/02 01:14:29;;;;;;;10.07;6.30;;;5.20;99.90;;;;;;5015474;28;20112;-86
2022/01/02 01:16:56;;;;;;;11.32;5.95;;;5.30;99.90;;;;;;5033526;28;20048;-86
2022/01/02 01:19:23;;;;;;;12.18;5.90;;;5.20;99.90;;;;;;5015770;28;20029;-86
2022/01/02 01:21:50;;;;;;;10.38;6.28;;;4.90;99.90;;;;;;5015646;28;20071;-86
2022/01/02 01:24:16;;;;;;;10.63;6.57;;;4.80;99.90;;;;;;5015672;28;20029;-86
2022/01/02 01:26:43;;;;;;;9.02;5.47;;;5.00;99.90;;;;;;5033378;28;20384;-86
2022/01/02 01:29:09;;;;;;;10.27;5.90;;;5.20;99.90;;;;;;5015653;28;20033;-86
2022/01/02 01:31:34;;;;;;;9.82;6.13;;;5.30;99.90;;;;;;5015515;28;20489;-85
2022/01/02 01:34:00;;;;;;;12.18;6.35;;;5.40;99.90;;;;;;5015549;28;20029;-86
2022/01/02 01:36:26;;;;;;;8.98;5.30;;;5.50;99.90;;;;;;5033226;28;20037;-85
2022/01/02 01:38:51;;;;;;;13.23;5.00;;;5.40;99.90;;;;;;5015512;28;20117;-85
2022/01/02 01:41:23;;;;;;;10.50;6.07;;;5.30;99.90;;;;;;5015362;28;20108;-86
2022/01/02 01:44:05;;;;;;;11.88;6.05;;;5.30;99.90;;;;;;5015798;28;20079;-86
2022/01/02 01:46:31;;;;;;;7.28;4.75;;;5.20;99.90;;;;;;5015444;28;20026;-86
2022/01/02 01:48:56;;;;;;;6.80;4.97;;;5.00;99.90;;;;;;5033049;28;20086;-86
2022/01/02 01:51:23;;;;;;;8.68;5.07;;;4.60;99.90;;;;;;5033098;28;20043;-86
2022/01/02 01:53:49;;;;;;;7.40;5.30;;;4.90;99.90;;;;;;5033061;28;20035;-86
2022/01/02 01:56:15;;;;;;;7.97;4.43;;;4.80;99.90;;;;;;5015368;28;20397;-86
2022/01/02 01:58:41;;;;;;;5.97;4.05;;;4.90;99.90;;;;;;5015335;28;20037;-86
2022/01/02 02:01:07;;;;;;;7.45;4.85;;;4.80;99.90;;;;;;5015288;28;20033;-86
2022/01/02 02:03:33;;;;;;;6.10;4.30;;;4.80;99.90;;;;;;5015271;28;20116;-86
2022/01/02 02:05:59;;;;;;;7.25;4.30;;;4.90;99.90;;;;;;5011733;28;20069;-86
2022/01/02 02:08:26;;;;;;;7.72;4.55;;;4.70;99.90;;;;;;5012051;28;20022;-86
2022/01/02 02:10:55;;;;;;;4.97;3.55;;;4.50;99.90;;;;;;5013277;28;20552;-86
2022/01/02 02:13:21;;;;;;;6.70;3.97;;;4.50;99.90;;;;;;5011980;28;20073;-86
2022/01/02 02:15:48;;;;;;;6.38;4.10;;;4.60;99.90;;;;;;5011894;28;20432;-87
2022/01/02 02:18:14;;;;;;;7.35;3.90;;;4.50;99.90;;;;;;5012006;28;20034;-86
2022/01/02 02:20:40;;;;;;;5.88;3.67;;;4.30;99.90;;;;;;5012001;28;20512;-86
2022/01/02 02:23:06;;;;;;;6.20;4.03;;;4.20;99.90;;;;;;5011911;28;20028;-86
2022/01/02 02:25:37;;;;;;;5.65;3.67;;;4.20;99.90;;;;;;5013439;28;20033;-86
2022/01/02 02:28:04;;;;;;;4.85;3.58;;;4.30;99.90;;;;;;5016916;28;20481;-86
2022/01/02 02:30:32;;;;;;;6.28;3.80;;;4.30;99.90;;;;;;5015668;28;20434;-86
2022/01/02 02:33:00;;;;;;;4.32;3.35;;;4.40;99.90;;;;;;5015526;28;20026;-86
2022/01/02 02:35:27;;;;;;;4.97;2.97;;;4.70;99.90;;;;;;5015477;28;20025;-86
2022/01/02 02:37:53;;;;;;;5.55;3.55;;;4.70;99.90;;;;;;5016694;28;20022;-86
2022/01/02 02:40:20;;;;;;;5.93;3.10;;;4.60;99.90;;;;;;5015351;28;20026;-86
2022/01/02 02:42:57;;;;;;;4.68;3.78;;;4.50;99.90;;;;;;5015323;28;20029;-86
2022/01/02 02:51:12;;;;;;;6.57;4.30;;;4.40;99.90;;;;;;5016529;28;20418;-86
2022/01/02 02:53:42;;;;;;;6.57;3.78;;;4.20;99.90;;;;;;5016488;28;20026;-86
2022/01/02 02:59:05;;;;;;;5.35;3.70;;;4.30;99.90;;;;;;5013583;28;20037;-86
2022/01/02 03:01:30;;;;;;;5.22;3.25;;;4.40;99.90;;;;;;5014947;28;20057;-86
2022/01/02 03:03:56;;;;;;;5.30;3.33;;;4.30;99.90;;;;;;5015001;28;20030;-86
2022/01/02 03:06:23;;;;;;;6.93;3.55;;;4.40;99.90;;;;;;5024921;28;20128;-86
2022/01/02 03:08:50;;;;;;;4.95;2.65;;;4.50;99.90;;;;;;5018097;28;20026;-86
2022/01/02 03:11:19;;;;;;;4.53;2.80;;;4.50;99.90;;;;;;5018101;28;20477;-86
2022/01/02 03:13:47;;;;;;;6.70;3.00;;;4.30;99.90;;;;;;5035806;28;20021;-86
2022/01/02 03:16:13;;;;;;;4.28;2.95;;;4.20;99.90;;;;;;5035726;28;20029;-86
2022/01/02 03:18:39;;;;;;;5.03;3.22;;;4.10;99.90;;;;;;5017860;28;20500;-86
2022/01/02 03:21:06;;;;;;;5.10;2.80;;;4.10;99.90;;;;;;5017982;28;20473;-86
2022/01/02 03:23:32;;;;;;;7.55;3.70;;;4.00;99.90;;;;;;5017856;28;20025;-86
2022/01/02 03:25:58;;;;;;;4.30;2.80;;;4.00;99.90;;;;;;5035559;28;20033;-86
2022/01/02 03:28:24;;;;;;;5.05;3.38;;;4.10;99.90;;;;;;5017832;28;20026;-86
2022/01/02 03:30:50;;;;;;;5.63;3.22;;;4.30;99.90;;;;;;5035494;28;20389;-86
2022/01/02 03:33:16;;;;;;;6.00;3.25;;;4.40;99.90;;;;;;5017700;28;20465;-86
2022/01/02 03:35:42;;;;;;;3.65;2.95;;;4.10;99.90;;;;;;5017244;28;20032;-86
2022/01/02 03:38:08;;;;;;;4.32;2.80;;;4.20;99.90;;;;;;5035370;28;20064;-86
2022/01/02 03:40:34;;;;;;;4.20;2.97;;;4.30;99.90;;;;;;5017464;28;20025;-86
2022/01/02 03:43:00;;;;;;;5.35;3.15;;;4.20;99.90;;;;;;5035287;28;20029;-86
2022/01/02 03:45:26;;;;;;;5.35;2.90;;;4.10;99.90;;;;;;5017498;28;20075;-86
2022/01/02 03:47:52;;;;;;;4.90;3.17;;;4.10;99.90;;;;;;5017427;28;20026;-86
2022/01/02 03:50:17;;;;;;;6.97;3.10;;;4.00;99.90;;;;;;5017404;28;20033;-86
2022/01/02 03:52:43;;;;;;;4.53;2.92;;;3.90;99.90;;;;;;5017309;28;20440;-86
2022/01/02 03:55:10;;;;;;;4.03;2.80;;;3.90;99.90;;;;;;5017196;28;20021;-86
2022/01/02 03:57:36;;;;;;;4.82;2.80;;;3.90;99.90;;;;;;5017226;28;20026;-86
2022/01/02 04:00:06;;;;;;;5.63;2.78;;;3.90;99.90;;;;;;5017108;28;20443;-86
2022/01/02 04:02:32;;;;;;;4.72;2.70;;;4.10;99.90;;;;;;5035464;28;20009;-86
2022/01/02 04:04:58;;;;;;;6.45;3.10;;;4.30;99.90;;;;;;5016999;28;20028;-86
2022/01/02 04:07:23;;;;;;;4.30;2.92;;;4.50;99.90;;;;;;5016910;28;20045;-86
2022/01/02 04:09:51;;;;;;;4.57;3.00;;;4.60;99.90;;;;;;5035041;28;20140;-86
2022/01/02 04:12:16;;;;;;;4.07;2.70;;;4.60;99.90;;;;;;5016842;28;20037;-86
2022/01/02 04:14:42;;;;;;;2.70;2.22;;;4.20;99.90;;;;;;5016944;28;20072;-85
2022/01/02 04:17:08;;;;;;;5.43;2.45;;;4.20;99.90;;;;;;5016911;28;20090;-86
2022/01/02 04:19:34;;;;;;;4.47;2.58;;;4.20;99.90;;;;;;5034872;28;20362;-86
2022/01/02 04:22:00;;;;;;;3.50;2.67;;;4.30;99.90;;;;;;5016641;28;20071;-86
2022/01/02 04:24:25;;;;;;;7.78;2.92;;;4.40;99.90;;;;;;5016705;28;20036;-86
2022/01/02 04:26:51;;;;;;;7.57;2.70;;;4.20;99.90;;;;;;5016699;28;20096;-86
2022/01/02 04:29:17;;;;;;;5.85;3.13;;;4.30;99.90;;;;;;5016635;28;20017;-86
2022/01/02 04:31:42;;;;;;;3.50;2.50;;;4.40;99.90;;;;;;5034341;28;20033;-86
2022/01/02 04:34:08;;;;;;;4.88;2.50;;;4.50;99.90;;;;;;5016546;28;20420;-86
2022/01/02 04:36:34;;;;;;;6.38;2.10;;;4.40;99.90;;;;;;5034240;28;20500;-86
2022/01/02 04:39:00;;;;;;;3.45;2.28;;;4.40;99.90;;;;;;5034191;28;20029;-86
2022/01/02 04:41:25;;;;;;;4.75;2.67;;;4.20;99.90;;;;;;5016308;28;20036;-86
2022/01/02 04:43:51;;;;;;;4.43;2.85;;;4.30;99.90;;;;;;5016419;28;20148;-86
2022/01/02 04:46:17;;;;;;;4.28;2.35;;;4.50;99.90;;;;;;5016388;28;20022;-86
2022/01/02 04:48:42;;;;;;;3.35;2.33;;;4.40;99.90;;;;;;5015575;28;20025;-86
2022/01/02 04:51:08;;;;;;;4.00;1.98;;;4.20;99.90;;;;;;5016259;28;20513;-86
2022/01/02 04:53:37;;;;;;;2.85;2.13;;;4.00;99.90;;;;;;5016242;28;20116;-86
2022/01/02 04:56:03;;;;;;;5.35;2.78;;;3.90;99.90;;;;;;5016132;28;20029;-86
2022/01/02 04:58:29;;;;;;;6.32;3.28;;;4.20;99.90;;;;;;5016094;28;20083;-86
2022/01/02 05:00:55;;;;;;;3.83;2.45;;;4.40;99.90;;;;;;5016033;28;20033;-86
2022/01/02 05:03:20;;;;;;;4.60;2.30;;;4.40;99.90;;;;;;5015995;28;20112;-86
2022/01/02 05:05:46;;;;;;;3.70;2.28;;;4.40;99.90;;;;;;5012648;28;20045;-86
2022/01/02 05:08:15;;;;;;;3.88;2.70;;;4.40;99.90;;;;;;5014303;28;20018;-86
2022/01/02 05:10:40;;;;;;;4.07;2.30;;;4.60;99.90;;;;;;5013869;28;20025;-86
2022/01/02 05:13:06;;;;;;;4.32;2.72;;;4.70;99.90;;;;;;5012692;28;20053;-85
2022/01/02 05:15:32;;;;;;;7.25;2.28;;;4.80;99.90;;;;;;5012551;28;20116;-86
2022/01/02 05:17:57;;;;;;;4.00;2.30;;;4.80;99.90;;;;;;5014127;28;20029;-86
2022/01/02 05:20:23;;;;;;;4.20;1.85;;;4.80;99.90;;;;;;5012441;28;20057;-86
2022/01/02 05:22:49;;;;;;;4.15;2.50;;;4.80;99.90;;;;;;5013769;28;20075;-86
2022/01/02 05:25:14;;;;;;;3.90;2.35;;;4.90;99.90;;;;;;5013688;28;20079;-86
2022/01/02 05:27:40;;;;;;;5.22;2.53;;;4.90;99.90;;;;;;5012605;28;20382;-86
2022/01/02 05:30:06;;;;;;;4.97;2.70;;;4.90;99.90;;;;;;5012367;28;20030;-86
2022/01/02 05:32:32;;;;;;;4.30;2.42;;;5.00;99.90;;;;;;5013667;28;20449;-86
2022/01/02 05:34:58;;;;;;;5.65;2.58;;;5.00;99.90;;;;;;5013776;28;20030;-86
2022/01/02 05:37:23;;;;;;;3.60;2.35;;;5.00;99.90;;;;;;5013590;28;20062;-86
2022/01/02 05:39:49;;;;;;;4.15;2.63;;;5.00;99.90;;;;;;5013402;28;20030;-85
2022/01/02 05:42:15;;;;;;;8.73;2.70;;;4.80;99.90;;;;;;5012489;28;20017;-85
2022/01/02 05:44:40;;;;;;;4.15;2.45;;;4.70;99.90;;;;;;5012194;28;20470;-85
2022/01/02 05:47:06;;;;;;;4.65;2.80;;;4.60;99.90;;;;;;5013499;28;20033;-85
2022/01/02 05:49:32;;;;;;;5.40;2.53;;;4.50;99.90;;;;;;5012155;28;20033;-86
2022/01/02 05:51:57;;;;;;;4.55;2.92;;;4.50;99.90;;;;;;5012156;28;20079;-86
2022/01/02 05:54:23;;;;;;;3.45;2.60;;;4.60;99.90;;;;;;5012937;28;20152;-85
2022/01/02 05:56:50;;;;;;;5.03;2.85;;;4.80;99.90;;;;;;5012131;28;20029;-85
2022/01/02 05:59:16;;;;;;;5.55;3.70;;;4.90;99.90;;;;;;5013408;28;20025;-86
2022/01/02 06:01:42;;;;;;;6.15;3.88;;;4.90;99.90;;;;;;5016087;28;20022;-86
2022/01/02 06:04:08;;;;;;;4.90;3.45;;;4.80;99.90;;;;;;5016085;28;20018;-86
2022/01/02 06:06:33;;;;;;;4.38;2.97;;;4.70;99.90;;;;;;5015803;28;20410;-86
2022/01/02 06:08:59;;;;;;;4.45;2.95;;;4.70;99.90;;;;;;5015957;28;20037;-86
2022/01/02 06:11:25;;;;;;;5.10;3.03;;;4.60;99.90;;;;;;5015991;28;20112;-86
2022/01/02 06:13:51;;;;;;;3.72;2.65;;;4.60;99.90;;;;;;5015847;28;20405;-86
2022/01/02 06:16:16;;;;;;;5.95;2.65;;;4.50;99.90;;;;;;5017182;28;20025;-86
2022/01/02 06:18:42;;;;;;;4.72;3.08;;;4.40;99.90;;;;;;5015829;28;20153;-86
2022/01/02 06:21:08;;;;;;;5.47;3.60;;;4.40;99.90;;;;;;5015655;28;20029;-86
2022/01/02 06:23:34;;;;;;;4.25;2.65;;;4.40;99.90;;;;;;5015755;28;20112;-86
2022/01/02 06:25:59;;;;;;;5.70;3.17;;;4.50;99.90;;;;;;5015883;28;20022;-86
2022/01/02 06:28:25;;;;;;;5.40;3.05;;;4.60;99.90;;;;;;5015745;28;20029;-86
2022/01/02 06:30:51;;;;;;;6.57;2.97;;;4.60;99.90;;;;;;5015655;28;20486;-86
2022/01/02 06:33:16;;;;;;;7.05;2.90;;;4.70;99.90;;;;;;5015468;28;20125;-86
2022/01/02 06:35:42;;;;;;;6.05;3.00;;;4.90;99.90;;;;;;5016723;28;20034;-86
2022/01/02 06:38:17;;;;;;;5.38;2.70;;;5.10;99.90;;;;;;5017013;28;20390;-86
2022/01/02 06:40:43;;;;;;;4.85;2.83;;;5.30;99.90;;;;;;5015377;28;20034;-86
2022/01/02 06:43:09;;;;;;;4.88;2.97;;;5.40;99.90;;;;;;5016592;28;20045;-86
2022/01/02 06:45:35;;;;;;;4.93;2.88;;;5.30;99.90;;;;;;5017108;28;20033;-86
2022/01/02 06:48:02;;;;;;;3.90;2.78;;;5.40;99.90;;;;;;5016523;28;20018;-86
2022/01/02 06:50:28;;;;;;;5.60;2.85;;;5.50;99.90;;;;;;5015191;28;20026;-86
2022/01/02 06:52:54;;;;;;;3.45;2.72;;;5.50;99.90;;;;;;5016939;28;20359;-86
2022/01/02 06:55:19;;;;;;;9.57;3.30;;;5.60;99.90;;;;;;5016870;28;20037;-86
2022/01/02 06:57:45;;;;;;;6.40;4.05;;;5.30;99.90;;;;;;5016375;28;20084;-85
2022/01/02 07:00:11;;;;;;;7.60;4.35;;;5.10;99.90;;;;;;5014913;28;20367;-86
2022/01/02 07:02:37;;;;;;;6.35;4.15;;;4.90;99.90;;;;;;5016297;28;20061;-86
2022/01/02 07:05:03;;;;;;;7.95;4.45;;;4.90;99.90;;;;;;5014891;28;20442;-86
2022/01/02 07:07:29;;;;;;;6.78;4.40;;;5.00;99.90;;;;;;5034036;28;20049;-86
2022/01/02 07:09:54;;;;;;;7.00;4.20;;;5.00;99.90;;;;;;5035873;28;20022;-86
2022/01/02 07:12:20;;;;;;;8.32;4.88;;;5.00;99.90;;;;;;5017233;28;20026;-86
2022/01/02 07:14:46;;;;;;;9.15;4.10;;;5.00;99.90;;;;;;5035812;28;20080;-86
2022/01/02 07:17:12;;;;;;;7.32;4.85;;;4.80;99.90;;;;;;5018009;28;20125;-86
2022/01/02 07:19:38;;;;;;;8.95;4.75;;;4.80;99.90;;;;;;5017926;28;20026;-86
2022/01/02 07:22:05;;;;;;;6.72;4.18;;;4.80;99.90;;;;;;5017853;28;20038;-86
2022/01/02 07:24:31;;;;;;;9.90;4.57;;;4.80;99.90;;;;;;5018940;28;20026;-86
2022/01/02 07:26:56;;;;;;;6.30;3.70;;;4.80;99.90;;;;;;5035828;28;20044;-86
2022/01/02 07:29:22;;;;;;;7.30;4.13;;;4.80;99.90;;;;;;5017782;28;20022;-86
2022/01/02 07:31:48;;;;;;;4.60;3.28;;;4.80;99.90;;;;;;5035491;28;20389;-86
2022/01/02 07:34:13;;;;;;;4.47;3.00;;;5.00;99.90;;;;;;5035400;28;20022;-86
2022/01/02 07:36:44;;;;;;;4.65;3.13;;;5.10;99.90;;;;;;5035386;28;20028;-86
2022/01/02 07:39:13;;;;;;;8.02;4.60;;;5.30;99.90;;;;;;5017599;28;20021;-86
2022/01/02 07:41:40;;;;;;;6.45;4.03;;;5.20;99.90;;;;;;5017500;28;20509;-86
2022/01/02 07:44:06;;;;;;;6.15;3.53;;;5.00;99.90;;;;;;5035284;28;20402;-86
2022/01/02 07:46:32;;;;;;;6.60;3.60;;;5.10;99.90;;;;;;5017421;28;20052;-86
2022/01/02 07:48:58;;;;;;;7.10;3.78;;;5.30;99.90;;;;;;5035145;28;20100;-86
2022/01/02 07:51:24;;;;;;;7.72;4.50;;;5.30;99.90;;;;;;5017396;28;20052;-86
2022/01/02 07:53:49;;;;;;;8.10;5.97;;;5.20;99.90;;;;;;5035051;28;20489;-86
2022/01/02 07:56:15;;;;;;;6.00;4.80;;;5.10;99.90;;;;;;5034992;28;20041;-86
2022/01/02 07:58:41;;;;;;;6.70;3.85;;;4.90;99.90;;;;;;5017242;28;20033;-86
2022/01/02 08:01:07;;;;;;;7.50;3.95;;;4.90;99.90;;;;;;5035125;28;20033;-86
2022/01/02 08:03:33;;;;;;;5.35;4.13;;;5.00;99.90;;;;;;5017045;28;20067;-86
2022/01/02 08:05:58;;;;;;;6.53;4.30;;;5.10;99.90;;;;;;5034747;28;20052;-86
2022/01/02 08:08:24;;;;;;;5.65;3.63;;;5.10;99.90;;;;;;5016983;28;20048;-86
2022/01/02 08:10:50;;;;;;;4.82;3.80;;;5.10;99.90;;;;;;5034740;28;20374;-85
2022/01/02 08:13:16;;;;;;;6.07;3.85;;;5.30;99.90;;;;;;5034985;28;20032;-85
2022/01/02 08:15:43;;;;;;;5.90;4.22;;;5.40;99.90;;;;;;5034614;28;20030;-86
2022/01/02 08:18:13;;;;;;;7.20;4.60;;;5.40;99.90;;;;;;5016835;28;20116;-86
2022/01/02 08:20:45;;;;;;;7.10;4.57;;;5.40;99.90;;;;;;5016638;28;20116;-86
2022/01/02 08:23:12;;;;;;;4.90;3.75;;;5.60;99.90;;;;;;5015726;28;20480;-86
2022/01/02 08:25:37;;;;;;;6.30;4.32;;;5.80;99.90;;;;;;5016708;28;20396;-86
2022/01/02 08:28:03;;;;;;;8.82;5.85;;;5.80;99.90;;;;;;5016667;28;20108;-86
2022/01/02 08:30:29;;;;;;;8.30;6.00;;;5.90;99.90;;;;;;5016555;28;20019;-86
2022/01/02 08:32:55;;;;;;;5.47;4.20;;;5.80;99.90;;;;;;5016524;28;20022;-85
2022/01/02 08:35:20;;;;;;;9.02;4.57;;;5.80;99.90;;;;;;5034773;28;20045;-86
2022/01/02 08:37:46;;;;;;;8.50;4.30;;;6.10;99.90;;;;;;5034224;28;20096;-85
2022/01/02 08:40:12;;;;;;;7.55;3.83;;;6.20;99.90;;;;;;5016399;28;20029;-84
2022/01/02 08:42:38;;;;;;;9.23;4.55;;;6.60;99.90;;;;;;5016311;28;20076;-85
2022/01/02 08:45:04;;;;;;;8.48;5.22;;;7.00;99.90;;;;;;5033971;28;20021;-85
2022/01/02 08:47:30;;;;;;;12.57;5.80;;;7.10;99.90;;;;;;5033953;28;20021;-85
2022/01/02 08:49:56;;;;;;;9.32;4.93;;;7.10;99.90;;;;;;5034215;28;20072;-86
2022/01/02 08:52:23;;;;;;;6.00;4.53;;;6.90;99.90;;;;;;5016155;28;20120;-86
2022/01/02 08:54:48;;;;;;;17.80;6.25;;;6.80;99.90;;;;;;5033946;28;20389;-86
2022/01/02 08:57:14;;;;;;;7.85;4.10;;;6.70;99.90;;;;;;5033928;28;20017;-86
2022/01/02 08:59:40;;;;;;;8.40;4.63;;;6.90;99.90;;;;;;5033845;28;20017;-86
2022/01/02 09:02:06;;;;;;;8.73;6.20;;;7.30;99.90;;;;;;5016002;28;20032;-86
2022/01/02 09:04:32;;;;;;;15.20;8.10;;;7.60;99.90;;;;;;5015945;28;20025;-86
2022/01/02 09:06:58;;;;;;;9.02;5.35;;;7.60;99.90;;;;;;5015688;28;20401;-85
2022/01/02 09:09:24;;;;;;;9.00;5.03;;;7.60;99.90;;;;;;5015949;28;20021;-85
2022/01/02 09:11:51;;;;;;;15.88;9.18;;;7.70;99.90;;;;;;5015854;28;20030;-85
2022/01/02 09:14:17;;;;;;;15.25;7.60;;;7.80;99.90;;;;;;5033477;28;20370;-85
2022/01/02 09:16:44;;;;;;;14.27;8.52;;;7.80;99.90;;;;;;5033582;28;20037;-86
2022/01/02 09:19:11;;;;;;;8.75;5.18;;;7.70;99.90;;;;;;5033525;28;20025;-86
2022/01/02 09:21:37;;;;;;;9.20;5.10;;;7.50;99.90;;;;;;5033327;28;20438;-86
2022/01/02 09:24:04;;;;;;;9.18;5.10;;;7.50;99.90;;;;;;5033428;28;20053;-86
2022/01/02 09:26:30;;;;;;;5.90;4.32;;;7.60;99.90;;;;;;5033359;28;20037;-86
2022/01/02 09:28:56;;;;;;;6.85;3.92;;;7.60;99.90;;;;;;5015631;28;20021;-86
2022/01/02 09:31:22;;;;;;;10.15;4.50;;;7.60;99.90;;;;;;5033385;28;20032;-86
2022/01/02 09:33:48;;;;;;;7.75;5.00;;;7.60;99.90;;;;;;5015563;28;20036;-86
2022/01/02 09:36:13;;;;;;;8.57;3.90;;;7.60;99.90;;;;;;5033288;28;20029;-86
2022/01/02 09:38:39;;;;;;;4.95;3.25;;;7.70;99.90;;;;;;5015581;28;20503;-86
2022/01/02 09:41:05;;;;;;;7.07;3.63;;;7.80;99.90;;;;;;5015474;28;20033;-86
2022/01/02 09:43:31;;;;;;;4.47;2.83;;;8.00;99.90;;;;;;5015500;28;20025;-86
2022/01/02 09:45:59;;;;;;;14.23;3.42;;;8.10;99.90;;;;;;5033463;28;20029;-86
2022/01/02 09:48:26;;;;;;;6.25;4.13;;;8.20;99.90;;;;;;5015472;28;20160;-86
2022/01/02 09:50:52;;;;;;;8.02;4.80;;;8.20;99.90;;;;;;5015427;28;20504;-86
2022/01/02 09:53:18;;;;;;;4.68;3.13;;;8.00;99.90;;;;;;5015310;28;20029;-86
2022/01/02 09:55:43;;;;;;;7.43;3.40;;;8.10;99.90;;;;;;5015425;28;20030;-86
2022/01/02 09:58:13;;;;;;;6.88;3.10;;;8.20;99.90;;;;;;5015287;28;20048;-86
2022/01/02 10:00:44;;;;;;;4.78;3.05;;;8.30;99.90;;;;;;5015260;28;20033;-86
2022/01/02 10:03:11;;;;;;;6.75;4.10;;;8.40;99.90;;;;;;5015723;28;20021;-87
2022/01/02 10:05:57;;;;;;;10.73;6.57;;;8.50;99.90;;;;;;5032749;28;20025;-86
2022/01/02 10:08:33;;;;;;;7.03;4.88;;;8.50;99.90;;;;;;5015254;28;20025;-86
2022/01/02 10:11:22;;;;;;;6.68;4.63;;;8.40;99.90;;;;;;5015291;28;20033;-86
2022/01/02 10:13:59;;;;;;;4.10;2.30;;;8.40;99.90;;;;;;5015223;28;20022;-86
2022/01/02 10:16:38;;;;;;;3.30;2.03;;;8.40;99.90;;;;;;5032903;28;20366;-86
2022/01/02 10:19:21;;;;;;;3.88;2.20;;;8.40;99.90;;;;;;5015253;28;20373;-86
2022/01/02 10:22:05;;;;;;;3.40;2.28;;;8.40;99.90;;;;;;5015027;28;20036;-86
2022/01/02 10:24:33;;;;;;;4.75;2.50;;;8.30;99.90;;;;;;5015214;28;20026;-86
2022/01/02 10:27:14;;;;;;;3.03;2.17;;;8.30;99.90;;;;;;5032887;28;20029;-86
2022/01/02 10:29:54;;;;;;;3.38;2.03;;;8.40;99.90;;;;;;5033147;28;20084;-86
2022/01/02 10:32:33;;;;;;;5.40;2.05;;;8.30;99.90;;;;;;5015052;28;20029;-87
2022/01/02 10:35:21;;;;;;;3.58;2.05;;;8.40;99.90;;;;;;5014931;28;20108;-86
2022/01/02 10:37:49;;;;;;;4.47;2.10;;;8.40;99.90;;;;;;5032775;28;20044;-86
2022/01/02 10:40:36;;;;;;;5.40;2.65;;;8.60;99.90;;;;;;5014913;28;20038;-86
2022/01/02 10:43:23;;;;;;;5.75;2.63;;;8.60;99.90;;;;;;5015032;28;20523;-86
2022/01/02 10:45:50;;;;;;;4.18;2.15;;;8.70;99.90;;;;;;5033722;28;20369;-86
2022/01/02 10:48:29;;;;;;;5.47;2.95;;;8.80;99.90;;;;;;5018658;28;20029;-87
2022/01/02 10:51:05;;;;;;;3.53;2.40;;;8.90;99.90;;;;;;5019431;28;20029;-86
2022/01/02 10:53:34;;;;;;;6.57;3.78;;;9.10;99.90;;;;;;5036585;28;20036;-86
2022/01/02 10:56:00;;;;;;;4.20;2.42;;;9.30;99.90;;;;;;5018444;28;20021;-87
2022/01/02 10:58:27;;;;;;;6.70;3.45;;;9.50;99.90;;;;;;5018544;28;20112;-87
2022/01/02 11:00:55;;;;;;;3.33;2.13;;;9.70;99.90;;;;;;5036096;28;20029;-87
2022/01/02 11:03:24;;;;;;;3.63;2.17;;;9.90;99.90;;;;;;5018353;28;20018;-89
2022/01/02 11:06:01;;;;;;;3.97;2.00;;;9.80;99.90;;;;;;5035744;28;20493;-86
2022/01/02 11:08:29;;;;;;;4.43;2.38;;;9.80;99.90;;;;;;5018264;28;20021;-88
2022/01/02 11:10:56;;;;;;;2.90;1.70;;;9.80;99.90;;;;;;5018269;28;20509;-86
2022/01/02 11:13:22;;;;;;;4.45;2.00;;;9.90;99.90;;;;;;5018164;28;20366;-86
2022/01/02 11:15:48;;;;;;;2.90;1.58;;;9.90;99.90;;;;;;5018126;28;20026;-86
2022/01/02 11:18:14;;;;;;;2.55;1.80;;;9.90;99.90;;;;;;5035820;28;20052;-86
2022/01/02 11:20:41;;;;;;;4.53;1.70;;;10.00;99.90;;;;;;5035792;28;20026;-87
2022/01/02 11:23:27;;;;;;;3.25;1.88;;;10.00;99.90;;;;;;5035716;28;20034;-87
2022/01/02 11:26:12;;;;;;;4.65;1.60;;;10.00;99.90;;;;;;5017950;28;20025;-86
2022/01/02 11:28:48;;;;;;;4.50;2.10;;;10.00;99.90;;;;;;5017900;28;20029;-87
2022/01/02 11:31:29;;;;;;;6.18;2.83;;;10.00;99.90;;;;;;5035878;28;20384;-86
2022/01/02 11:33:55;;;;;;;7.03;2.67;;;10.00;99.90;;;;;;5017834;28;20508;-86
2022/01/02 11:36:25;;;;;;;5.28;2.22;;;10.00;99.90;;;;;;5035539;28;20029;-87
2022/01/02 11:38:57;;;;;;;3.95;2.35;;;10.00;99.90;;;;;;5017669;28;20033;-85
2022/01/02 11:41:50;;;;;;;3.55;2.03;;;10.10;99.90;;;;;;5017998;28;20385;-87
2022/01/02 11:44:22;;;;;;;7.60;3.17;;;10.20;99.90;;;;;;5017742;28;20108;-86
2022/01/02 11:46:54;;;;;;;5.40;2.90;;;10.30;99.90;;;;;;5017460;28;20022;-87
2022/01/02 11:49:39;;;;;;;4.28;2.60;;;10.30;99.90;;;;;;5017499;28;20053;-86
2022/01/02 11:52:26;;;;;;;4.30;2.30;;;10.40;99.90;;;;;;5035258;28;20026;-86
2022/01/02 11:54:54;;;;;;;6.85;2.85;;;10.40;99.90;;;;;;5017360;28;20067;-86
2022/01/02 11:57:23;;;;;;;4.45;2.40;;;10.40;99.90;;;;;;5017123;28;20030;-86
2022/01/02 11:59:48;;;;;;;6.40;3.35;;;10.60;99.90;;;;;;5035261;28;20385;-86
2022/01/02 12:02:26;;;;;;;5.25;2.55;;;10.80;99.90;;;;;;5017189;28;20021;-86
2022/01/02 12:07:40;;;;;;;3.47;1.90;;;;;;;;;;5034824;28;20048;-86
2022/01/02 12:10:17;;;;;;;4.60;2.17;;;12.30;99.90;;;;;;5017166;28;20052;-87
2022/01/02 12:13:17;;;;;;;8.68;3.92;;;13.00;99.90;;;;;;5016961;28;20024;-86
2022/01/02 12:15:43;;;;;;;6.63;2.95;;;13.10;99.90;;;;;;5016979;28;20025;-87
2022/01/02 12:18:29;;;;;;;4.93;2.78;;;13.00;99.90;;;;;;5016922;28;20029;-85
2022/01/02 12:21:00;;;;;;;3.45;1.75;;;12.80;99.90;;;;;;5016867;28;20033;-85
2022/01/02 12:23:34;;;;;;;3.58;1.70;;;13.00;99.90;;;;;;5016913;28;20063;-86
2022/01/02 12:26:10;;;;;;;2.40;1.40;;;14.00;99.90;;;;;;5016781;28;20022;-85
2022/01/02 12:29:01;;;;;;;2.58;1.50;;;14.40;99.90;;;;;;5016764;28;20041;-83
2022/01/02 12:31:35;;;;;;;3.00;1.30;;;14.70;99.90;;;;;;5034440;28;20425;-85
2022/01/02 12:34:05;;;;;;;;;;;14.80;99.90;;;;;;5034839;28;20030;-87
2022/01/02 12:36:32;;;;;;;3.35;1.40;;;14.90;99.90;;;;;;5017414;28;20324;-85
2022/01/02 12:39:02;;;;;;;6.03;1.50;;;15.10;99.90;;;;;;5034322;28;20029;-83
2022/01/02 12:41:30;;;;;;;2.55;1.45;;;15.20;99.90;;;;;;5016497;28;20030;-86
2022/01/02 12:44:01;;;;;;;4.47;1.85;;;15.10;99.90;;;;;;5016440;28;20025;-86
2022/01/02 12:46:34;;;;;;;3.35;1.50;;;15.00;99.90;;;;;;5016509;28;20017;-83
2022/01/02 12:49:01;;;;;;;2.17;1.08;;;15.00;99.90;;;;;;5016461;28;20017;-87
2022/01/02 12:51:36;;;;;;;2.42;1.23;;;15.30;99.90;;;;;;5016357;28;20033;-87
2022/01/02 12:54:10;;;;;;;3.03;1.55;;;15.40;99.90;;;;;;5016287;28;20026;-86
2022/01/02 12:56:46;;;;;;;5.22;1.33;;;15.70;99.90;;;;;;5016544;28;20022;-87
2022/01/02 12:59:32;;;;;;;2.75;1.30;;;15.70;99.90;;;;;;5034372;28;20029;-86
2022/01/02 13:02:02;;;;;;;5.10;1.33;;;16.00;99.90;;;;;;5016247;28;20071;-86
2022/01/02 13:04:34;;;;;;;1.27;1.00;;;16.00;99.90;;;;;;5033827;28;20504;-87
2022/01/02 13:07:26;;;;;;;2.88;1.10;;;15.80;99.90;;;;;;5012624;28;20512;-87
2022/01/02 13:09:56;;;;;;;3.13;1.35;;;15.80;99.90;;;;;;5002109;28;20504;-86
2022/01/02 13:12:25;;;;;;;2.72;1.60;;;15.80;99.90;;;;;;5012748;28;20026;-88
2022/01/02 13:14:54;;;;;;;3.38;1.20;;;16.60;99.90;;;;;;5012646;28;20393;-87